Latest Weather Observations for Point Stuart

IDD60801

Issued at 9:21 am CST Thursday 23 January 2020 (issued every 10 minutes, with the page automatically refreshed every 10 minutes)

About weather observations | Map of weather stations | Latest weather observations for NT | Other Formats
Station Details ID: 014254 Name: POINT STUART Lat: -12.24 Lon: 131.88 Height: 1.0 m
Data from the previous 72 hours. | See also: Recent months at Point Stuart
Date/Time
CST
Temp
°C
App
Temp
°C
Dew
Point
°C
Rel
Hum
%
Delta-T
°C
Wind Press
QNH
hPa
Press
MSL
hPa
Rain since
9am
mm
Dir  Spd
km/h
Gust
km/h
Spd
kts
Gust
kts
23/09:00am 27.5 31.2 26.3 93 0.9 W 19 26 10 14 1008.9 1008.9 25.8
23/08:30am 27.7 32.2 27.5 99 0.1 W 19 24 10 13 1008.4 - 25.8
23/08:00am 28.5 33.2 27.8 96 0.5 NW 19 24 10 13 1007.9 - 23.6
23/07:30am 28.3 32.2 27.4 95 0.6 NW 22 30 12 16 1007.7 - 23.6
23/07:00am 28.3 32.7 27.6 96 0.5 NW 20 32 11 17 1007.3 - 23.6
23/06:30am 28.0 31.9 27.5 97 0.4 NW 22 28 12 15 1007.0 - 23.6
23/06:00am 27.9 31.9 27.6 98 0.2 NW 22 28 12 15 1006.6 1006.6 23.6
23/05:30am 27.6 31.1 27.4 99 0.1 NW 24 32 13 17 1006.1 - 23.6
23/05:00am 27.2 29.7 27.0 99 0.1 NW 28 41 15 22 1006.2 - 23.6
23/04:30am 27.0 30.2 27.0 100 0.0 NW 24 33 13 18 1006.2 - 23.6
23/04:00am 27.3 30.0 27.3 100 0.0 NW 28 37 15 20 1006.4 - 23.6
23/03:42am 27.1 29.6 27.1 100 0.0 WNW 28 46 15 25 1006.4 - 23.2
23/03:30am 27.6 30.3 27.3 98 0.2 WNW 28 39 15 21 1006.5 - 21.0
23/03:00am 27.6 32.0 27.6 100 0.0 NW 20 26 11 14 1006.6 1006.6 20.6
23/02:30am 27.8 31.8 27.6 99 0.1 NW 22 28 12 15 1007.0 - 20.6
23/02:00am 27.6 31.8 27.3 98 0.2 NW 20 28 11 15 1007.1 - 20.4
23/01:30am 27.3 31.3 27.0 98 0.2 NW 20 28 11 15 1007.4 - 20.4
23/01:00am 27.4 31.7 27.2 99 0.1 NW 19 24 10 13 1007.9 - 20.4
23/12:30am 27.5 31.9 27.3 99 0.1 WNW 19 24 10 13 1008.8 - 20.4
23/12:00am 27.6 31.4 27.3 98 0.2 NW 22 30 12 16 1008.7 1008.7 20.4
 
Date/Time
CST
Temp
°C
App
Temp
°C
Dew
Point
°C
Rel
Hum
%
Delta-T
°C
Wind Press
QNH
hPa
Press
MSL
hPa
Rain since
9am
mm
Dir  Spd
km/h
Gust
km/h
Spd
kts
Gust
kts
22/11:30pm 27.4 30.7 27.1 98 0.2 WNW 24 32 13 17 1008.8 - 20.4
22/11:00pm 26.8 30.9 26.3 97 0.4 NW 17 26 9 14 1008.9 - 20.4
22/10:30pm 26.9 29.8 25.9 94 0.7 WNW 22 32 12 17 1009.0 - 20.4
22/10:00pm 26.9 30.7 26.4 97 0.4 WNW 19 24 10 13 1008.7 - 20.4
22/09:30pm 27.1 30.7 26.4 96 0.5 WNW 20 26 11 14 1008.9 - 20.4
22/09:00pm 26.6 31.1 26.4 99 0.1 W 15 19 8 10 1008.6 1008.6 20.4
22/08:30pm 26.7 31.4 26.7 100 0.0 W 15 20 8 11 1008.0 - 20.4
22/08:00pm 26.5 31.1 26.5 100 0.0 W 15 20 8 11 1007.9 - 20.4
22/07:30pm 26.6 31.2 26.6 100 0.0 W 15 20 8 11 1007.6 - 20.4
22/07:00pm 26.6 30.2 26.4 99 0.1 WNW 20 26 11 14 1007.1 - 20.4
22/06:30pm 26.8 30.4 26.5 98 0.2 WNW 20 28 11 15 1006.8 - 20.4
22/06:00pm 26.7 29.2 26.0 96 0.5 WNW 24 30 13 16 1006.6 1006.6 20.4
22/05:30pm 26.5 28.7 26.0 97 0.4 WNW 26 35 14 19 1006.8 - 20.2
22/05:00pm 26.4 29.1 25.7 96 0.5 W 22 28 12 15 1007.0 - 20.2
22/04:30pm 26.0 29.2 25.5 97 0.4 WNW 19 26 10 14 1006.7 - 20.2
22/04:00pm 25.7 28.4 25.7 100 0.0 WNW 22 28 12 15 1007.3 - 20.2
22/03:30pm 25.6 28.8 25.6 100 0.0 W 19 24 10 13 1007.7 - 20.0
22/03:00pm 24.9 27.7 24.9 100 0.0 W 19 22 10 12 1008.2 1008.2 19.4
22/02:30pm 24.3 27.1 24.3 100 0.0 W 17 20 9 11 1008.7 - 18.8
22/02:00pm 24.4 27.3 24.4 100 0.0 W 17 24 9 13 1009.2 - 17.6
22/01:30pm 24.4 26.9 24.4 100 0.0 WSW 19 24 10 13 1009.5 - 15.4
22/01:00pm 24.4 26.9 24.4 100 0.0 WSW 19 24 10 13 1009.9 - 12.2
22/12:30pm 24.6 26.6 24.6 100 0.0 SW 22 28 12 15 1010.2 - 6.2
22/12:00pm 25.1 27.8 25.1 100 0.0 SW 20 28 11 15 1010.7 1010.7 3.0
22/11:30am 25.6 28.6 25.6 100 0.0 WSW 20 26 11 14 1010.8 - 1.4
22/11:00am 26.0 27.6 25.7 98 0.2 WSW 28 33 15 18 1011.1 - 1.4
22/10:30am 26.4 29.6 26.4 100 0.0 W 22 30 12 16 1011.0 - 1.4
22/10:00am 24.8 25.7 24.6 99 0.1 NW 28 35 15 19 1011.2 - 1.4
22/09:30am 26.1 28.7 26.1 100 0.0 WNW 24 35 13 19 1011.2 - 0.2
22/09:00am 26.0 29.5 26.0 100 0.0 WNW 19 26 10 14 1010.7 1010.7 43.0
22/08:30am 24.7 28.5 24.7 100 0.0 W 13 19 7 10 1010.4 - 42.8
22/08:00am 24.6 28.3 24.6 100 0.0 WSW 13 17 7 9 1009.7 - 42.6
22/07:30am 24.7 26.8 24.7 100 0.0 W 22 30 12 16 1009.9 - 42.2
22/07:00am 25.7 29.0 25.7 100 0.0 NW 19 24 10 13 1009.8 - 40.6
22/06:30am 25.4 27.2 25.4 100 0.0 WNW 26 35 14 19 1009.4 - 39.2
22/06:00am 24.9 27.5 24.9 100 0.0 W 20 26 11 14 1009.3 1009.3 37.2
22/05:30am 24.9 27.5 24.9 100 0.0 W 20 33 11 18 1009.2 - 34.8
22/05:00am 26.0 26.3 25.7 98 0.2 NW 35 44 19 24 1008.6 - 34.4
22/04:30am 26.0 26.1 26.0 100 0.0 NW 37 52 20 28 1008.3 - 34.2
22/04:00am 25.6 26.2 25.6 100 0.0 NW 33 46 18 25 1008.7 - 33.4
22/03:30am 25.2 25.5 25.2 100 0.0 NW 33 44 18 24 1008.8 - 32.4
22/03:08am 24.8 24.1 24.8 100 0.0 NW 37 61 20 33 1008.8 - 31.2
22/03:00am 25.0 24.4 25.0 100 0.0 WNW 37 50 20 27 1009.1 1009.1 26.6
22/02:30am 24.6 23.8 24.6 100 0.0 WNW 37 57 20 31 1008.7 - 22.2
22/02:03am 24.8 24.2 24.3 97 0.3 W 35 54 19 29 1009.3 - 17.0
22/02:00am 25.0 24.0 24.3 96 0.5 WSW 37 54 20 29 1009.4 - 17.0
22/01:53am 26.0 24.4 23.9 88 1.4 W 39 46 21 25 1009.4 - 17.0
22/01:52am 26.5 26.8 24.2 87 1.6 WNW 30 46 16 25 1009.4 - 17.0
22/01:30am 26.6 30.3 26.3 98 0.2 WNW 19 24 10 13 1009.3 - 17.0
22/01:00am 25.1 28.3 24.9 99 0.1 W 17 20 9 11 1009.5 - 17.0
22/12:30am 24.3 26.3 24.0 98 0.2 WSW 20 28 11 15 1010.1 - 17.0
22/12:11am 25.0 23.5 23.4 91 1.1 W 37 50 20 27 1010.7 - 17.0
22/12:09am 25.8 25.8 24.4 92 1.0 WNW 32 50 17 27 1010.7 - 17.0
22/12:00am 26.4 27.9 26.2 99 0.1 WNW 30 43 16 23 1010.6 1010.6 16.6
 
Date/Time
CST
Temp
°C
App
Temp
°C
Dew
Point
°C
Rel
Hum
%
Delta-T
°C
Wind Press
QNH
hPa
Press
MSL
hPa
Rain since
9am
mm
Dir  Spd
km/h
Gust
km/h
Spd
kts
Gust
kts
21/11:38pm 26.4 28.3 26.2 99 0.1 W 28 52 15 28 1010.7 - 12.4
21/11:30pm 26.6 27.4 24.4 88 1.5 W 28 41 15 22 1010.4 - 10.2
21/11:00pm 28.2 29.3 25.6 86 1.8 NW 30 44 16 24 1010.4 - 10.2
21/10:30pm 28.1 29.7 25.7 87 1.7 NW 28 37 15 20 1009.8 - 10.2
21/10:00pm 28.1 29.6 25.5 86 1.8 NW 28 35 15 19 1009.5 - 10.2
21/09:30pm 28.1 28.5 25.1 84 2.1 WNW 32 44 17 24 1009.4 - 10.2
21/09:00pm 28.0 27.6 24.0 79 2.8 WNW 33 46 18 25 1009.3 1009.3 10.2
21/08:30pm 28.4 28.3 25.2 83 2.2 WNW 35 50 19 27 1009.2 - 10.2
21/08:00pm 28.8 28.8 24.4 77 3.1 WNW 32 41 17 22 1008.7 - 10.2
21/07:30pm 27.9 31.1 26.5 92 1.0 W 22 32 12 17 1008.1 - 10.2
21/07:00pm 27.6 29.6 25.2 87 1.7 W 24 32 13 17 1007.9 - 10.2
21/06:30pm 26.8 30.2 26.1 96 0.5 W 20 26 11 14 1008.0 - 10.2
21/06:00pm 25.4 25.4 24.7 96 0.5 W 33 56 18 30 1008.2 1008.2 8.2
21/05:52pm 25.8 23.7 23.8 89 1.4 W 41 59 22 32 1008.3 - 7.6
21/05:47pm 28.4 26.8 24.0 77 3.0 W 39 56 21 30 1008.3 - 7.6
21/05:30pm 29.9 33.1 25.9 79 2.8 NW 20 26 11 14 1007.4 - 7.6
21/05:00pm 30.8 33.9 26.3 77 3.2 NW 22 30 12 16 1007.8 - 7.6
21/04:30pm 30.8 34.5 26.3 77 3.2 NW 19 24 10 13 1007.7 - 7.6
21/04:00pm 31.7 35.6 26.9 76 3.5 NNW 20 30 11 16 1008.1 - 7.6
21/03:30pm 30.4 34.7 26.6 80 2.7 NNW 17 28 9 15 1008.2 - 7.6
21/03:00pm 31.1 34.6 27.4 81 2.7 NW 24 33 13 18 1008.5 1008.5 7.6
21/02:30pm 30.9 33.8 26.6 78 3.1 NW 24 33 13 18 1008.5 - 7.4
21/02:00pm 29.6 32.5 26.0 81 2.6 WNW 22 30 12 16 1008.4 - 7.4
21/01:30pm 28.8 31.3 25.4 82 2.4 WNW 22 30 12 16 1009.1 - 7.4
21/01:00pm 28.2 31.0 25.0 83 2.2 W 19 24 10 13 1009.7 - 7.4
21/12:30pm 27.4 30.1 25.6 90 1.3 W 22 30 12 16 1010.3 - 7.4
21/12:00pm 26.9 29.6 26.2 96 0.5 WNW 24 33 13 18 1011.3 1011.3 7.4
21/11:30am 26.6 28.4 26.1 97 0.4 W 28 35 15 19 1011.7 - 7.0
21/11:00am 26.6 29.1 25.9 96 0.5 WNW 24 33 13 18 1011.7 - 6.4
21/10:30am 26.1 29.5 26.1 100 0.0 WNW 20 28 11 15 1011.8 - 5.8
21/10:00am 25.2 28.2 25.2 100 0.0 WNW 19 24 10 13 1012.2 - 5.4
21/09:30am 24.3 27.1 24.3 100 0.0 WNW 17 20 9 11 1012.2 - 4.6
21/09:00am 24.8 24.9 24.8 100 0.0 WNW 33 44 18 24 1012.1 1012.1 40.2
21/08:55am 24.8 25.7 24.6 99 0.1 W 28 43 15 23 1011.7 - 38.8
21/08:30am 25.7 29.4 25.7 100 0.0 SW 17 24 9 13 1010.7 - 38.6
21/08:00am 26.0 30.6 26.0 100 0.0 SSW 13 17 7 9 1010.6 - 38.6
21/07:30am 25.0 29.7 25.0 100 0.0 S 9 11 5 6 1009.9 - 38.6
21/07:00am 25.0 28.6 25.0 100 0.0 S 15 20 8 11 1009.8 - 38.4
21/06:30am 25.4 32.1 25.4 100 0.0 CALM 0 0 0 0 1009.4 - 38.4
21/06:00am 25.2 31.0 25.2 100 0.0 NE 4 9 2 5 1008.5 1008.5 38.4
21/05:30am 25.1 31.6 25.1 100 0.0 CALM 0 0 0 0 1008.6 - 35.8
21/05:00am 24.9 30.5 24.9 100 0.0 SE 4 6 2 3 1008.3 - 35.6
21/04:30am 24.8 30.0 24.8 100 0.0 E 6 7 3 4 1008.1 - 35.6
21/04:00am 24.9 30.0 24.9 100 0.0 ESE 7 9 4 5 1008.2 - 35.6
21/03:30am 24.9 30.2 24.9 100 0.0 E 6 7 3 4 1008.4 - 35.6
21/03:00am 24.9 30.9 24.9 100 0.0 SSW 2 6 1 3 1008.3 1008.3 35.6
21/02:30am 24.7 29.8 24.7 100 0.0 W 6 7 3 4 1008.7 - 35.4
21/02:00am 24.9 28.1 24.9 100 0.0 WSW 17 24 9 13 1009.3 - 34.6
21/01:30am 25.3 30.6 25.3 100 0.0 SSW 7 9 4 5 1009.6 - 30.2
21/01:00am 25.2 30.5 25.2 100 0.0 WSW 7 9 4 5 1010.1 - 30.0
21/12:30am 25.3 30.8 25.3 100 0.0 SW 6 9 3 5 1010.5 - 29.0
21/12:00am 25.5 29.0 25.5 100 0.0 W 17 24 9 13 1010.7 1010.7 28.0
 
Date/Time
CST
Temp
°C
App
Temp
°C
Dew
Point
°C
Rel
Hum
%
Delta-T
°C
Wind Press
QNH
hPa
Press
MSL
hPa
Rain since
9am
mm
Dir  Spd
km/h
Gust
km/h
Spd
kts
Gust
kts
20/11:30pm 24.3 27.9 24.3 100 0.0 WNW 13 15 7 8 1010.4 - 26.2
20/11:00pm 24.3 25.4 24.3 100 0.0 WNW 26 44 14 24 1010.7 - 18.0
20/10:45pm 25.0 25.4 25.0 100 0.0 WNW 32 41 17 22 1010.8 - 12.6
20/10:30pm 25.7 31.5 25.7 100 0.0 ESE 6 7 3 4 1010.1 - 10.4
20/10:00pm 25.6 31.3 25.6 100 0.0 SSE 6 9 3 5 1009.9 - 9.8
20/09:30pm 25.7 31.5 25.7 100 0.0 NNW 6 9 3 5 1009.7 - 7.8
20/09:00pm 26.0 31.8 25.7 98 0.2 S 6 7 3 4 1009.3 1009.3 5.4
20/08:30pm 25.9 31.6 25.9 100 0.0 WNW 7 13 4 7 1009.0 - 5.4
20/08:00pm 25.1 30.0 24.6 97 0.3 WSW 7 11 4 6 1008.6 - 4.8
20/07:30pm 25.2 27.9 24.7 97 0.3 WSW 19 26 10 14 1008.0 - 4.8
20/07:00pm 26.6 30.3 24.6 89 1.4 SW 13 19 7 10 1007.9 - 1.2
20/06:30pm 28.9 31.6 25.7 83 2.3 NW 22 28 12 15 1007.4 - 1.2
20/06:00pm 29.1 32.1 25.5 81 2.5 NW 20 28 11 15 1007.5 1007.5 1.2
20/05:30pm 29.2 31.6 25.2 79 2.8 NW 22 32 12 17 1006.7 - 1.2
20/05:00pm 29.4 32.1 25.6 80 2.7 NW 22 32 12 17 1006.4 - 1.2
20/04:30pm 29.2 31.2 25.2 79 2.8 NW 24 35 13 19 1006.7 - 1.2
20/04:00pm 29.0 30.3 25.2 80 2.7 WNW 28 35 15 19 1006.7 - 1.2
20/03:30pm 28.7 29.3 25.3 82 2.4 NW 32 41 17 22 1007.0 - 1.2
20/03:00pm 29.0 30.4 26.0 84 2.1 WNW 30 43 16 23 1007.2 1007.2 1.2
20/02:30pm 30.4 32.5 27.8 86 1.9 NW 33 43 18 23 1007.0 - 1.2
20/02:00pm 28.1 30.2 25.9 88 1.6 WNW 26 43 14 23 1007.2 - 1.2
20/01:30pm 30.8 34.7 27.4 82 2.5 W 22 30 12 16 1007.7 - 0.2
20/01:00pm 30.5 32.5 26.4 79 2.9 W 28 37 15 20 1008.1 - 0.2
20/12:30pm 30.1 31.1 26.0 78 2.9 W 32 39 17 21 1008.5 - 0.2
20/12:00pm 31.0 32.7 27.8 83 2.3 W 35 46 19 25 1008.9 1008.9 0.2
20/11:30am 30.9 33.1 26.6 78 3.1 W 28 35 15 19 1009.2 - 0.0
20/11:00am 29.7 32.0 25.7 79 2.8 WNW 24 32 13 17 1009.8 - 0.0
20/10:30am 30.2 33.0 27.0 83 2.3 WNW 26 33 14 18 1009.6 - 0.0
20/10:00am 29.9 33.0 26.9 84 2.2 WNW 24 30 13 16 1009.6 - 0.0
20/09:30am 28.9 31.0 25.9 84 2.1 WNW 26 35 14 19 1009.5 - 0.0

Other formats

Comma delimited format used in spreadsheet applications
http://www.bom.gov.au/fwo/IDD60801/IDD60801.94127.axf

JavaScript Object Notation format (JSON) in row-major order
http://www.bom.gov.au/fwo/IDD60801/IDD60801.94127.json

Data quality

Most of these data are generated automatically and are frequently updated. Quality checks on data are not normally performed. It is possible for incorrect values to appear. Refer to information at About Latest Weather Observations and please check the disclaimer before using these data.